sensor_id;sensor_type;location;lat;lon;timestamp;P1;durP1;ratioP1;P2;durP2;ratioP2
42586;SDS011;28216;53.362;-6.288;2023-08-01T00:18:42;15.05;;;3.08;;
42586;SDS011;28216;53.362;-6.288;2023-08-01T00:21:08;19.55;;;3.22;;
42586;SDS011;28216;53.362;-6.288;2023-08-01T00:40:04;11.52;;;3.03;;
42586;SDS011;28216;53.362;-6.288;2023-08-01T00:52:26;10.43;;;3.00;;
42586;SDS011;28216;53.362;-6.288;2023-08-01T01:01:43;12.32;;;2.97;;
42586;SDS011;28216;53.362;-6.288;2023-08-01T01:32:43;15.70;;;3.20;;
42586;SDS011;28216;53.362;-6.288;2023-08-01T02:05:03;12.18;;;2.63;;
42586;SDS011;28216;53.362;-6.288;2023-08-01T02:07:34;13.98;;;3.00;;
42586;SDS011;28216;53.362;-6.288;2023-08-01T02:09:59;12.50;;;2.70;;
42586;SDS011;28216;53.362;-6.288;2023-08-01T02:12:26;17.08;;;3.15;;
42586;SDS011;28216;53.362;-6.288;2023-08-01T02:14:52;9.77;;;2.78;;
42586;SDS011;28216;53.362;-6.288;2023-08-01T02:17:17;7.53;;;2.45;;
42586;SDS011;28216;53.362;-6.288;2023-08-01T02:19:43;14.30;;;3.08;;
42586;SDS011;28216;53.362;-6.288;2023-08-01T02:22:08;11.07;;;2.72;;
42586;SDS011;28216;53.362;-6.288;2023-08-01T02:24:37;8.00;;;2.50;;
42586;SDS011;28216;53.362;-6.288;2023-08-01T02:27:03;12.10;;;2.83;;
42586;SDS011;28216;53.362;-6.288;2023-08-01T02:32:15;13.07;;;3.33;;
42586;SDS011;28216;53.362;-6.288;2023-08-01T02:38:03;10.35;;;2.95;;
42586;SDS011;28216;53.362;-6.288;2023-08-01T02:40:46;8.10;;;2.65;;
42586;SDS011;28216;53.362;-6.288;2023-08-01T02:43:16;10.55;;;2.70;;
42586;SDS011;28216;53.362;-6.288;2023-08-01T02:45:42;9.60;;;2.78;;
42586;SDS011;28216;53.362;-6.288;2023-08-01T02:48:08;7.90;;;2.60;;
42586;SDS011;28216;53.362;-6.288;2023-08-01T02:50:34;8.57;;;2.42;;
42586;SDS011;28216;53.362;-6.288;2023-08-01T02:53:00;10.77;;;2.42;;
42586;SDS011;28216;53.362;-6.288;2023-08-01T02:55:26;9.75;;;2.67;;
42586;SDS011;28216;53.362;-6.288;2023-08-01T02:57:51;9.20;;;2.70;;
42586;SDS011;28216;53.362;-6.288;2023-08-01T03:00:17;10.13;;;2.67;;
42586;SDS011;28216;53.362;-6.288;2023-08-01T03:02:42;9.38;;;2.70;;
42586;SDS011;28216;53.362;-6.288;2023-08-01T03:05:08;6.80;;;2.60;;
42586;SDS011;28216;53.362;-6.288;2023-08-01T03:10:19;10.25;;;2.88;;
42586;SDS011;28216;53.362;-6.288;2023-08-01T03:27:23;7.35;;;2.30;;
42586;SDS011;28216;53.362;-6.288;2023-08-01T03:39:33;8.60;;;2.92;;
42586;SDS011;28216;53.362;-6.288;2023-08-01T03:41:58;15.07;;;3.10;;
42586;SDS011;28216;53.362;-6.288;2023-08-01T03:44:23;11.82;;;3.17;;
42586;SDS011;28216;53.362;-6.288;2023-08-01T03:46:49;9.27;;;2.60;;
42586;SDS011;28216;53.362;-6.288;2023-08-01T03:49:14;8.80;;;2.60;;
42586;SDS011;28216;53.362;-6.288;2023-08-01T04:04:59;9.88;;;2.42;;
42586;SDS011;28216;53.362;-6.288;2023-08-01T04:07:24;9.13;;;2.53;;
42586;SDS011;28216;53.362;-6.288;2023-08-01T04:09:49;10.43;;;2.58;;
42586;SDS011;28216;53.362;-6.288;2023-08-01T04:12:15;10.23;;;2.90;;
42586;SDS011;28216;53.362;-6.288;2023-08-01T04:14:40;9.48;;;2.80;;
42586;SDS011;28216;53.362;-6.288;2023-08-01T04:49:25;6.07;;;2.42;;
42586;SDS011;28216;53.362;-6.288;2023-08-01T04:51:50;10.70;;;2.75;;
42586;SDS011;28216;53.362;-6.288;2023-08-01T04:54:16;7.93;;;2.40;;
42586;SDS011;28216;53.362;-6.288;2023-08-01T04:56:41;7.25;;;2.25;;
42586;SDS011;28216;53.362;-6.288;2023-08-01T04:59:06;10.55;;;2.72;;
42586;SDS011;28216;53.362;-6.288;2023-08-01T05:01:32;9.63;;;2.45;;
42586;SDS011;28216;53.362;-6.288;2023-08-01T05:03:58;8.80;;;2.78;;
42586;SDS011;28216;53.362;-6.288;2023-08-01T05:06:23;8.32;;;2.50;;
42586;SDS011;28216;53.362;-6.288;2023-08-01T05:08:49;8.23;;;2.63;;
42586;SDS011;28216;53.362;-6.288;2023-08-01T05:11:14;8.93;;;2.38;;
42586;SDS011;28216;53.362;-6.288;2023-08-01T05:13:39;11.75;;;2.60;;
42586;SDS011;28216;53.362;-6.288;2023-08-01T05:16:05;6.10;;;2.13;;
42586;SDS011;28216;53.362;-6.288;2023-08-01T05:18:30;10.40;;;2.55;;
42586;SDS011;28216;53.362;-6.288;2023-08-01T05:20:56;11.82;;;2.30;;
42586;SDS011;28216;53.362;-6.288;2023-08-01T05:23:21;8.25;;;2.45;;
42586;SDS011;28216;53.362;-6.288;2023-08-01T05:25:47;12.93;;;2.60;;
42586;SDS011;28216;53.362;-6.288;2023-08-01T05:28:12;12.57;;;2.65;;
42586;SDS011;28216;53.362;-6.288;2023-08-01T05:30:37;6.93;;;2.22;;
42586;SDS011;28216;53.362;-6.288;2023-08-01T05:33:03;8.15;;;2.50;;
42586;SDS011;28216;53.362;-6.288;2023-08-01T05:35:31;9.15;;;2.88;;
42586;SDS011;28216;53.362;-6.288;2023-08-01T05:37:56;6.40;;;2.13;;
42586;SDS011;28216;53.362;-6.288;2023-08-01T05:40:21;6.50;;;2.28;;
42586;SDS011;28216;53.362;-6.288;2023-08-01T05:42:47;12.98;;;2.65;;
42586;SDS011;28216;53.362;-6.288;2023-08-01T05:45:12;6.38;;;2.10;;
42586;SDS011;28216;53.362;-6.288;2023-08-01T05:47:38;7.35;;;2.10;;
42586;SDS011;28216;53.362;-6.288;2023-08-01T05:50:05;7.78;;;2.40;;
42586;SDS011;28216;53.362;-6.288;2023-08-01T05:52:31;9.25;;;2.53;;
42586;SDS011;28216;53.362;-6.288;2023-08-01T05:54:59;7.95;;;2.47;;
42586;SDS011;28216;53.362;-6.288;2023-08-01T05:57:50;9.93;;;2.50;;
42586;SDS011;28216;53.362;-6.288;2023-08-01T06:00:17;8.52;;;2.05;;
42586;SDS011;28216;53.362;-6.288;2023-08-01T06:02:45;12.25;;;2.58;;
42586;SDS011;28216;53.362;-6.288;2023-08-01T06:05:10;9.13;;;2.38;;
42586;SDS011;28216;53.362;-6.288;2023-08-01T06:07:36;7.32;;;2.30;;
42586;SDS011;28216;53.362;-6.288;2023-08-01T06:10:04;8.48;;;2.33;;
42586;SDS011;28216;53.362;-6.288;2023-08-01T06:15:37;6.78;;;2.08;;
42586;SDS011;28216;53.362;-6.288;2023-08-01T06:18:02;6.70;;;2.13;;
42586;SDS011;28216;53.362;-6.288;2023-08-01T06:20:28;12.60;;;2.30;;
42586;SDS011;28216;53.362;-6.288;2023-08-01T06:22:53;10.93;;;2.70;;
42586;SDS011;28216;53.362;-6.288;2023-08-01T06:25:19;5.72;;;2.28;;
42586;SDS011;28216;53.362;-6.288;2023-08-01T06:27:45;9.52;;;1.95;;
42586;SDS011;28216;53.362;-6.288;2023-08-01T06:30:10;7.07;;;2.30;;
42586;SDS011;28216;53.362;-6.288;2023-08-01T06:35:59;8.55;;;2.20;;
42586;SDS011;28216;53.362;-6.288;2023-08-01T06:38:27;6.97;;;2.40;;
42586;SDS011;28216;53.362;-6.288;2023-08-01T06:40:53;7.38;;;2.15;;
42586;SDS011;28216;53.362;-6.288;2023-08-01T06:43:19;10.63;;;2.53;;
42586;SDS011;28216;53.362;-6.288;2023-08-01T06:45:49;9.15;;;2.10;;
42586;SDS011;28216;53.362;-6.288;2023-08-01T06:48:15;9.10;;;2.30;;
42586;SDS011;28216;53.362;-6.288;2023-08-01T06:50:40;9.15;;;2.20;;
42586;SDS011;28216;53.362;-6.288;2023-08-01T06:53:06;10.18;;;2.17;;
42586;SDS011;28216;53.362;-6.288;2023-08-01T06:55:31;7.20;;;2.03;;
42586;SDS011;28216;53.362;-6.288;2023-08-01T06:57:57;5.03;;;2.35;;
42586;SDS011;28216;53.362;-6.288;2023-08-01T07:00:22;4.60;;;1.95;;
42586;SDS011;28216;53.362;-6.288;2023-08-01T07:02:48;6.68;;;2.00;;
42586;SDS011;28216;53.362;-6.288;2023-08-01T07:05:13;6.18;;;2.20;;
42586;SDS011;28216;53.362;-6.288;2023-08-01T07:07:39;7.80;;;2.40;;
42586;SDS011;28216;53.362;-6.288;2023-08-01T07:10:04;4.45;;;2.08;;
42586;SDS011;28216;53.362;-6.288;2023-08-01T07:12:30;7.70;;;3.10;;
42586;SDS011;28216;53.362;-6.288;2023-08-01T07:14:56;7.90;;;2.72;;
42586;SDS011;28216;53.362;-6.288;2023-08-01T07:17:21;9.98;;;2.63;;
42586;SDS011;28216;53.362;-6.288;2023-08-01T07:19:46;4.63;;;2.10;;
42586;SDS011;28216;53.362;-6.288;2023-08-01T07:28:18;7.38;;;2.05;;
42586;SDS011;28216;53.362;-6.288;2023-08-01T07:30:43;4.53;;;2.08;;
42586;SDS011;28216;53.362;-6.288;2023-08-01T07:33:10;4.75;;;2.03;;
42586;SDS011;28216;53.362;-6.288;2023-08-01T07:35:36;5.30;;;1.80;;
42586;SDS011;28216;53.362;-6.288;2023-08-01T07:38:01;4.20;;;1.80;;
42586;SDS011;28216;53.362;-6.288;2023-08-01T07:40:27;5.63;;;1.90;;
42586;SDS011;28216;53.362;-6.288;2023-08-01T07:42:52;6.07;;;2.13;;
42586;SDS011;28216;53.362;-6.288;2023-08-01T07:45:18;8.00;;;2.00;;
42586;SDS011;28216;53.362;-6.288;2023-08-01T07:47:44;4.35;;;1.80;;
42586;SDS011;28216;53.362;-6.288;2023-08-01T07:50:10;8.30;;;1.88;;
42586;SDS011;28216;53.362;-6.288;2023-08-01T07:52:36;6.95;;;2.00;;
42586;SDS011;28216;53.362;-6.288;2023-08-01T07:55:01;6.20;;;1.80;;
42586;SDS011;28216;53.362;-6.288;2023-08-01T07:57:27;5.93;;;1.65;;
42586;SDS011;28216;53.362;-6.288;2023-08-01T07:59:52;7.38;;;1.88;;
42586;SDS011;28216;53.362;-6.288;2023-08-01T08:02:18;5.00;;;2.03;;
42586;SDS011;28216;53.362;-6.288;2023-08-01T08:04:43;5.53;;;1.90;;
42586;SDS011;28216;53.362;-6.288;2023-08-01T08:07:09;4.10;;;1.70;;
42586;SDS011;28216;53.362;-6.288;2023-08-01T08:09:34;4.10;;;1.60;;
42586;SDS011;28216;53.362;-6.288;2023-08-01T08:12:00;5.13;;;1.80;;
42586;SDS011;28216;53.362;-6.288;2023-08-01T08:14:25;4.70;;;1.77;;
42586;SDS011;28216;53.362;-6.288;2023-08-01T08:16:51;3.55;;;1.50;;
42586;SDS011;28216;53.362;-6.288;2023-08-01T08:19:17;4.10;;;1.50;;
42586;SDS011;28216;53.362;-6.288;2023-08-01T08:21:42;4.40;;;1.73;;
42586;SDS011;28216;53.362;-6.288;2023-08-01T08:24:08;2.67;;;1.48;;
42586;SDS011;28216;53.362;-6.288;2023-08-01T08:26:33;4.45;;;1.50;;
42586;SDS011;28216;53.362;-6.288;2023-08-01T08:29:02;3.22;;;1.50;;
42586;SDS011;28216;53.362;-6.288;2023-08-01T08:31:30;2.90;;;1.40;;
42586;SDS011;28216;53.362;-6.288;2023-08-01T08:33:55;5.13;;;1.70;;
42586;SDS011;28216;53.362;-6.288;2023-08-01T08:36:30;5.88;;;1.70;;
42586;SDS011;28216;53.362;-6.288;2023-08-01T08:38:55;4.15;;;1.60;;
42586;SDS011;28216;53.362;-6.288;2023-08-01T08:41:21;3.17;;;1.48;;
42586;SDS011;28216;53.362;-6.288;2023-08-01T08:43:50;3.47;;;1.50;;
42586;SDS011;28216;53.362;-6.288;2023-08-01T08:46:18;5.80;;;1.50;;
42586;SDS011;28216;53.362;-6.288;2023-08-01T08:48:48;2.97;;;1.40;;
42586;SDS011;28216;53.362;-6.288;2023-08-01T08:51:14;3.78;;;1.42;;
42586;SDS011;28216;53.362;-6.288;2023-08-01T08:53:41;3.22;;;1.48;;
42586;SDS011;28216;53.362;-6.288;2023-08-01T08:56:08;3.85;;;1.65;;
42586;SDS011;28216;53.362;-6.288;2023-08-01T08:58:35;3.00;;;1.42;;
42586;SDS011;28216;53.362;-6.288;2023-08-01T09:01:04;8.60;;;1.80;;
42586;SDS011;28216;53.362;-6.288;2023-08-01T09:03:31;2.75;;;1.33;;
42586;SDS011;28216;53.362;-6.288;2023-08-01T09:06:11;6.03;;;1.60;;
42586;SDS011;28216;53.362;-6.288;2023-08-01T09:08:39;2.13;;;1.38;;
42586;SDS011;28216;53.362;-6.288;2023-08-01T09:11:08;4.30;;;1.63;;
42586;SDS011;28216;53.362;-6.288;2023-08-01T09:13:34;4.22;;;1.27;;
42586;SDS011;28216;53.362;-6.288;2023-08-01T09:16:01;3.53;;;1.40;;
42586;SDS011;28216;53.362;-6.288;2023-08-01T09:18:27;3.65;;;1.30;;
42586;SDS011;28216;53.362;-6.288;2023-08-01T09:20:53;4.05;;;1.50;;
42586;SDS011;28216;53.362;-6.288;2023-08-01T09:23:18;3.55;;;1.50;;
42586;SDS011;28216;53.362;-6.288;2023-08-01T09:25:44;4.78;;;1.48;;
42586;SDS011;28216;53.362;-6.288;2023-08-01T09:30:50;3.38;;;1.45;;
42586;SDS011;28216;53.362;-6.288;2023-08-01T09:33:19;3.28;;;1.20;;
42586;SDS011;28216;53.362;-6.288;2023-08-01T09:35:44;4.95;;;1.45;;
42586;SDS011;28216;53.362;-6.288;2023-08-01T09:38:13;3.00;;;1.30;;
42586;SDS011;28216;53.362;-6.288;2023-08-01T09:40:40;3.67;;;1.50;;
42586;SDS011;28216;53.362;-6.288;2023-08-01T09:43:07;3.95;;;1.45;;
42586;SDS011;28216;53.362;-6.288;2023-08-01T09:45:33;3.15;;;1.20;;
42586;SDS011;28216;53.362;-6.288;2023-08-01T09:48:00;2.47;;;1.58;;
42586;SDS011;28216;53.362;-6.288;2023-08-01T09:50:25;2.42;;;1.20;;
42586;SDS011;28216;53.362;-6.288;2023-08-01T09:52:51;2.65;;;1.30;;
42586;SDS011;28216;53.362;-6.288;2023-08-01T09:55:33;2.35;;;1.20;;
42586;SDS011;28216;53.362;-6.288;2023-08-01T09:57:59;2.35;;;1.15;;
42586;SDS011;28216;53.362;-6.288;2023-08-01T10:00:25;4.40;;;1.20;;
42586;SDS011;28216;53.362;-6.288;2023-08-01T10:06:19;2.65;;;1.20;;
42586;SDS011;28216;53.362;-6.288;2023-08-01T10:08:46;2.25;;;1.10;;
42586;SDS011;28216;53.362;-6.288;2023-08-01T10:11:14;3.67;;;1.25;;
42586;SDS011;28216;53.362;-6.288;2023-08-01T10:13:42;2.70;;;1.20;;
42586;SDS011;28216;53.362;-6.288;2023-08-01T10:16:08;3.88;;;1.10;;
42586;SDS011;28216;53.362;-6.288;2023-08-01T10:18:35;1.92;;;1.00;;
42586;SDS011;28216;53.362;-6.288;2023-08-01T10:21:03;2.72;;;1.10;;
42586;SDS011;28216;53.362;-6.288;2023-08-01T10:23:32;4.03;;;1.13;;
42586;SDS011;28216;53.362;-6.288;2023-08-01T10:25:59;2.92;;;1.20;;
42586;SDS011;28216;53.362;-6.288;2023-08-01T10:28:32;2.45;;;1.15;;
42586;SDS011;28216;53.362;-6.288;2023-08-01T10:31:14;2.65;;;1.20;;
42586;SDS011;28216;53.362;-6.288;2023-08-01T10:33:42;1.75;;;1.15;;
42586;SDS011;28216;53.362;-6.288;2023-08-01T10:36:14;2.45;;;1.20;;
42586;SDS011;28216;53.362;-6.288;2023-08-01T10:38:47;5.05;;;1.50;;
42586;SDS011;28216;53.362;-6.288;2023-08-01T10:48:10;1.17;;;0.98;;
42586;SDS011;28216;53.362;-6.288;2023-08-01T10:50:36;1.65;;;0.90;;
42586;SDS011;28216;53.362;-6.288;2023-08-01T10:53:02;3.17;;;1.00;;
42586;SDS011;28216;53.362;-6.288;2023-08-01T10:55:38;3.95;;;1.63;;
42586;SDS011;28216;53.362;-6.288;2023-08-01T10:58:07;2.45;;;1.10;;
42586;SDS011;28216;53.362;-6.288;2023-08-01T11:00:33;3.53;;;1.10;;
42586;SDS011;28216;53.362;-6.288;2023-08-01T11:02:58;2.28;;;1.15;;
42586;SDS011;28216;53.362;-6.288;2023-08-01T11:05:24;1.80;;;1.00;;
42586;SDS011;28216;53.362;-6.288;2023-08-01T11:11:14;2.17;;;1.10;;
42586;SDS011;28216;53.362;-6.288;2023-08-01T11:13:40;2.92;;;0.95;;
42586;SDS011;28216;53.362;-6.288;2023-08-01T11:16:05;2.92;;;1.10;;
42586;SDS011;28216;53.362;-6.288;2023-08-01T11:28:08;3.47;;;0.90;;
42586;SDS011;28216;53.362;-6.288;2023-08-01T11:30:39;3.00;;;1.17;;
42586;SDS011;28216;53.362;-6.288;2023-08-01T11:33:19;3.13;;;1.02;;
42586;SDS011;28216;53.362;-6.288;2023-08-01T11:35:46;2.50;;;1.10;;
42586;SDS011;28216;53.362;-6.288;2023-08-01T11:38:15;1.23;;;0.90;;
42586;SDS011;28216;53.362;-6.288;2023-08-01T11:40:41;1.95;;;0.90;;
42586;SDS011;28216;53.362;-6.288;2023-08-01T11:43:07;1.33;;;1.00;;
42586;SDS011;28216;53.362;-6.288;2023-08-01T11:45:33;1.45;;;0.80;;
42586;SDS011;28216;53.362;-6.288;2023-08-01T11:47:58;1.63;;;0.90;;
42586;SDS011;28216;53.362;-6.288;2023-08-01T11:50:24;3.63;;;1.20;;
42586;SDS011;28216;53.362;-6.288;2023-08-01T11:52:51;1.10;;;1.00;;
42586;SDS011;28216;53.362;-6.288;2023-08-01T11:55:25;3.33;;;1.20;;
42586;SDS011;28216;53.362;-6.288;2023-08-01T11:57:55;3.73;;;1.10;;
42586;SDS011;28216;53.362;-6.288;2023-08-01T12:00:23;1.77;;;1.05;;
42586;SDS011;28216;53.362;-6.288;2023-08-01T12:02:50;3.72;;;1.00;;
42586;SDS011;28216;53.362;-6.288;2023-08-01T12:05:23;2.22;;;1.15;;
42586;SDS011;28216;53.362;-6.288;2023-08-01T12:07:49;0.80;;;0.80;;
42586;SDS011;28216;53.362;-6.288;2023-08-01T12:10:15;2.67;;;0.80;;
42586;SDS011;28216;53.362;-6.288;2023-08-01T12:15:25;1.90;;;0.85;;
42586;SDS011;28216;53.362;-6.288;2023-08-01T12:17:51;3.28;;;0.85;;
42586;SDS011;28216;53.362;-6.288;2023-08-01T12:23:19;2.03;;;1.00;;
42586;SDS011;28216;53.362;-6.288;2023-08-01T12:25:48;3.42;;;1.20;;
42586;SDS011;28216;53.362;-6.288;2023-08-01T12:28:15;2.95;;;1.00;;
42586;SDS011;28216;53.362;-6.288;2023-08-01T12:30:42;1.52;;;0.82;;
42586;SDS011;28216;53.362;-6.288;2023-08-01T12:39:53;1.85;;;1.00;;
42586;SDS011;28216;53.362;-6.288;2023-08-01T12:49:10;1.25;;;1.13;;
42586;SDS011;28216;53.362;-6.288;2023-08-01T12:51:36;1.35;;;0.90;;
42586;SDS011;28216;53.362;-6.288;2023-08-01T12:54:03;2.67;;;0.90;;
42586;SDS011;28216;53.362;-6.288;2023-08-01T12:56:28;1.60;;;1.02;;
42586;SDS011;28216;53.362;-6.288;2023-08-01T12:58:54;2.40;;;0.80;;
42586;SDS011;28216;53.362;-6.288;2023-08-01T13:01:19;2.50;;;0.90;;
42586;SDS011;28216;53.362;-6.288;2023-08-01T13:06:48;1.90;;;0.85;;
42586;SDS011;28216;53.362;-6.288;2023-08-01T13:09:14;1.00;;;0.90;;
42586;SDS011;28216;53.362;-6.288;2023-08-01T13:11:39;3.35;;;1.10;;
42586;SDS011;28216;53.362;-6.288;2023-08-01T13:14:07;1.65;;;1.08;;
42586;SDS011;28216;53.362;-6.288;2023-08-01T13:16:33;1.20;;;0.80;;
42586;SDS011;28216;53.362;-6.288;2023-08-01T13:18:58;3.63;;;1.15;;
42586;SDS011;28216;53.362;-6.288;2023-08-01T13:21:32;1.40;;;1.20;;
42586;SDS011;28216;53.362;-6.288;2023-08-01T13:30:53;3.15;;;1.00;;
42586;SDS011;28216;53.362;-6.288;2023-08-01T13:33:20;1.80;;;0.85;;
42586;SDS011;28216;53.362;-6.288;2023-08-01T13:35:50;3.20;;;0.85;;
42586;SDS011;28216;53.362;-6.288;2023-08-01T13:38:17;2.25;;;0.90;;
42586;SDS011;28216;53.362;-6.288;2023-08-01T13:46:37;2.72;;;0.95;;
42586;SDS011;28216;53.362;-6.288;2023-08-01T13:49:03;1.90;;;1.02;;
42586;SDS011;28216;53.362;-6.288;2023-08-01T13:51:30;2.53;;;1.20;;
42586;SDS011;28216;53.362;-6.288;2023-08-01T13:53:57;2.17;;;1.00;;
42586;SDS011;28216;53.362;-6.288;2023-08-01T13:56:24;1.25;;;0.90;;
42586;SDS011;28216;53.362;-6.288;2023-08-01T13:58:50;3.28;;;1.20;;
42586;SDS011;28216;53.362;-6.288;2023-08-01T14:01:34;2.72;;;1.00;;
42586;SDS011;28216;53.362;-6.288;2023-08-01T14:07:22;2.70;;;1.20;;
42586;SDS011;28216;53.362;-6.288;2023-08-01T14:09:48;3.17;;;1.10;;
42586;SDS011;28216;53.362;-6.288;2023-08-01T14:15:35;3.25;;;0.90;;
42586;SDS011;28216;53.362;-6.288;2023-08-01T14:20:48;1.63;;;0.80;;
42586;SDS011;28216;53.362;-6.288;2023-08-01T14:23:13;1.92;;;0.70;;
42586;SDS011;28216;53.362;-6.288;2023-08-01T14:28:47;1.63;;;0.70;;
42586;SDS011;28216;53.362;-6.288;2023-08-01T14:31:13;4.50;;;1.00;;
42586;SDS011;28216;53.362;-6.288;2023-08-01T14:33:38;0.75;;;0.60;;
42586;SDS011;28216;53.362;-6.288;2023-08-01T14:36:07;1.40;;;0.60;;
42586;SDS011;28216;53.362;-6.288;2023-08-01T14:38:36;1.40;;;0.90;;
42586;SDS011;28216;53.362;-6.288;2023-08-01T14:41:02;1.20;;;0.80;;
42586;SDS011;28216;53.362;-6.288;2023-08-01T14:43:27;1.33;;;0.80;;
42586;SDS011;28216;53.362;-6.288;2023-08-01T14:45:53;1.52;;;0.80;;
42586;SDS011;28216;53.362;-6.288;2023-08-01T14:48:22;1.02;;;0.70;;
42586;SDS011;28216;53.362;-6.288;2023-08-01T14:50:48;5.25;;;0.88;;
42586;SDS011;28216;53.362;-6.288;2023-08-01T14:55:58;3.35;;;0.70;;
42586;SDS011;28216;53.362;-6.288;2023-08-01T15:01:14;0.70;;;0.70;;
42586;SDS011;28216;53.362;-6.288;2023-08-01T15:06:24;1.10;;;0.80;;
42586;SDS011;28216;53.362;-6.288;2023-08-01T15:08:51;0.80;;;0.70;;
42586;SDS011;28216;53.362;-6.288;2023-08-01T15:11:17;1.52;;;0.90;;
42586;SDS011;28216;53.362;-6.288;2023-08-01T15:20:26;1.80;;;0.80;;
42586;SDS011;28216;53.362;-6.288;2023-08-01T15:22:52;0.85;;;0.80;;
42586;SDS011;28216;53.362;-6.288;2023-08-01T15:25:17;0.80;;;0.80;;
42586;SDS011;28216;53.362;-6.288;2023-08-01T15:27:43;1.00;;;0.80;;
42586;SDS011;28216;53.362;-6.288;2023-08-01T15:30:08;1.90;;;0.90;;
42586;SDS011;28216;53.362;-6.288;2023-08-01T15:32:34;1.63;;;0.70;;
42586;SDS011;28216;53.362;-6.288;2023-08-01T15:34:59;0.93;;;0.77;;
42586;SDS011;28216;53.362;-6.288;2023-08-01T15:37:26;1.20;;;0.88;;
42586;SDS011;28216;53.362;-6.288;2023-08-01T15:39:55;2.65;;;0.88;;
42586;SDS011;28216;53.362;-6.288;2023-08-01T15:42:21;0.98;;;0.70;;
42586;SDS011;28216;53.362;-6.288;2023-08-01T15:44:46;2.05;;;0.85;;
42586;SDS011;28216;53.362;-6.288;2023-08-01T15:47:12;1.98;;;1.00;;
42586;SDS011;28216;53.362;-6.288;2023-08-01T15:49:37;0.80;;;0.80;;
42586;SDS011;28216;53.362;-6.288;2023-08-01T15:52:03;1.75;;;1.00;;
42586;SDS011;28216;53.362;-6.288;2023-08-01T15:54:29;1.50;;;0.85;;
42586;SDS011;28216;53.362;-6.288;2023-08-01T15:56:54;2.20;;;1.08;;
42586;SDS011;28216;53.362;-6.288;2023-08-01T15:59:20;2.03;;;1.00;;
42586;SDS011;28216;53.362;-6.288;2023-08-01T16:01:45;2.85;;;1.58;;
42586;SDS011;28216;53.362;-6.288;2023-08-01T16:04:11;0.63;;;0.63;;
42586;SDS011;28216;53.362;-6.288;2023-08-01T16:06:37;0.65;;;0.65;;
42586;SDS011;28216;53.362;-6.288;2023-08-01T16:09:03;0.60;;;0.60;;
42586;SDS011;28216;53.362;-6.288;2023-08-01T16:11:29;0.98;;;0.90;;
42586;SDS011;28216;53.362;-6.288;2023-08-01T16:14:03;1.17;;;0.93;;
42586;SDS011;28216;53.362;-6.288;2023-08-01T16:16:29;1.50;;;0.70;;
42586;SDS011;28216;53.362;-6.288;2023-08-01T16:21:39;7.47;;;3.17;;
42586;SDS011;28216;53.362;-6.288;2023-08-01T16:24:04;1.08;;;0.80;;
42586;SDS011;28216;53.362;-6.288;2023-08-01T16:26:33;1.75;;;1.00;;
42586;SDS011;28216;53.362;-6.288;2023-08-01T16:29:05;8.15;;;1.05;;
42586;SDS011;28216;53.362;-6.288;2023-08-01T16:31:31;1.67;;;0.80;;
42586;SDS011;28216;53.362;-6.288;2023-08-01T16:33:56;1.38;;;1.17;;
42586;SDS011;28216;53.362;-6.288;2023-08-01T16:36:22;1.33;;;0.80;;
42586;SDS011;28216;53.362;-6.288;2023-08-01T16:39:00;2.08;;;0.80;;
42586;SDS011;28216;53.362;-6.288;2023-08-01T16:45:05;1.10;;;0.80;;
42586;SDS011;28216;53.362;-6.288;2023-08-01T16:47:52;3.72;;;0.80;;
42586;SDS011;28216;53.362;-6.288;2023-08-01T16:50:20;1.40;;;0.95;;
42586;SDS011;28216;53.362;-6.288;2023-08-01T16:52:48;1.42;;;0.88;;
42586;SDS011;28216;53.362;-6.288;2023-08-01T16:55:17;1.20;;;0.80;;
42586;SDS011;28216;53.362;-6.288;2023-08-01T16:57:51;0.70;;;0.70;;
42586;SDS011;28216;53.362;-6.288;2023-08-01T17:00:17;1.20;;;0.82;;
42586;SDS011;28216;53.362;-6.288;2023-08-01T17:02:49;0.70;;;0.70;;
42586;SDS011;28216;53.362;-6.288;2023-08-01T17:05:17;1.70;;;1.00;;
42586;SDS011;28216;53.362;-6.288;2023-08-01T17:08:06;1.42;;;0.85;;
42586;SDS011;28216;53.362;-6.288;2023-08-01T17:17:21;1.55;;;1.27;;
42586;SDS011;28216;53.362;-6.288;2023-08-01T17:19:52;2.63;;;1.35;;
42586;SDS011;28216;53.362;-6.288;2023-08-01T17:28:48;3.67;;;1.13;;
42586;SDS011;28216;53.362;-6.288;2023-08-01T17:31:14;1.67;;;1.10;;
42586;SDS011;28216;53.362;-6.288;2023-08-01T17:40:39;5.93;;;2.15;;
42586;SDS011;28216;53.362;-6.288;2023-08-01T17:43:53;2.78;;;1.20;;
42586;SDS011;28216;53.362;-6.288;2023-08-01T17:49:14;2.30;;;1.20;;
42586;SDS011;28216;53.362;-6.288;2023-08-01T17:51:40;3.38;;;1.30;;
42586;SDS011;28216;53.362;-6.288;2023-08-01T17:54:05;1.95;;;1.10;;
42586;SDS011;28216;53.362;-6.288;2023-08-01T18:03:23;2.67;;;1.20;;
42586;SDS011;28216;53.362;-6.288;2023-08-01T18:05:48;1.60;;;1.10;;
42586;SDS011;28216;53.362;-6.288;2023-08-01T18:08:14;1.83;;;1.30;;
42586;SDS011;28216;53.362;-6.288;2023-08-01T18:10:39;3.92;;;1.50;;
42586;SDS011;28216;53.362;-6.288;2023-08-01T18:13:05;2.05;;;1.30;;
42586;SDS011;28216;53.362;-6.288;2023-08-01T18:15:40;3.03;;;1.15;;
42586;SDS011;28216;53.362;-6.288;2023-08-01T18:18:07;2.22;;;1.17;;
42586;SDS011;28216;53.362;-6.288;2023-08-01T18:20:33;3.63;;;1.58;;
42586;SDS011;28216;53.362;-6.288;2023-08-01T18:22:59;2.15;;;1.38;;
42586;SDS011;28216;53.362;-6.288;2023-08-01T18:25:25;2.67;;;1.20;;
42586;SDS011;28216;53.362;-6.288;2023-08-01T18:27:51;2.92;;;1.40;;
42586;SDS011;28216;53.362;-6.288;2023-08-01T18:30:16;2.78;;;1.40;;
42586;SDS011;28216;53.362;-6.288;2023-08-01T18:32:42;3.22;;;1.40;;
42586;SDS011;28216;53.362;-6.288;2023-08-01T18:35:07;4.13;;;1.77;;
42586;SDS011;28216;53.362;-6.288;2023-08-01T18:37:33;4.18;;;2.10;;
42586;SDS011;28216;53.362;-6.288;2023-08-01T18:39:58;3.58;;;1.60;;
42586;SDS011;28216;53.362;-6.288;2023-08-01T18:42:25;4.47;;;1.70;;
42586;SDS011;28216;53.362;-6.288;2023-08-01T18:44:51;3.97;;;1.90;;
42586;SDS011;28216;53.362;-6.288;2023-08-01T18:47:17;4.32;;;1.98;;
42586;SDS011;28216;53.362;-6.288;2023-08-01T18:49:43;5.35;;;2.60;;
42586;SDS011;28216;53.362;-6.288;2023-08-01T18:52:09;6.38;;;2.25;;
42586;SDS011;28216;53.362;-6.288;2023-08-01T18:54:36;4.05;;;2.55;;
42586;SDS011;28216;53.362;-6.288;2023-08-01T18:57:01;4.55;;;2.03;;
42586;SDS011;28216;53.362;-6.288;2023-08-01T18:59:27;6.07;;;2.17;;
42586;SDS011;28216;53.362;-6.288;2023-08-01T19:01:52;2.67;;;1.80;;
42586;SDS011;28216;53.362;-6.288;2023-08-01T19:04:20;3.88;;;1.95;;
42586;SDS011;28216;53.362;-6.288;2023-08-01T19:06:46;3.90;;;1.75;;
42586;SDS011;28216;53.362;-6.288;2023-08-01T19:09:11;2.75;;;1.30;;
42586;SDS011;28216;53.362;-6.288;2023-08-01T19:11:38;2.65;;;1.50;;
42586;SDS011;28216;53.362;-6.288;2023-08-01T19:14:04;2.10;;;1.65;;
42586;SDS011;28216;53.362;-6.288;2023-08-01T19:16:30;1.95;;;1.08;;
42586;SDS011;28216;53.362;-6.288;2023-08-01T19:18:55;2.83;;;1.20;;
42586;SDS011;28216;53.362;-6.288;2023-08-01T19:21:21;3.33;;;1.23;;
42586;SDS011;28216;53.362;-6.288;2023-08-01T19:23:47;1.88;;;1.33;;
42586;SDS011;28216;53.362;-6.288;2023-08-01T19:26:12;3.17;;;1.30;;
42586;SDS011;28216;53.362;-6.288;2023-08-01T19:28:38;2.58;;;1.50;;
42586;SDS011;28216;53.362;-6.288;2023-08-01T19:31:04;2.17;;;1.38;;
42586;SDS011;28216;53.362;-6.288;2023-08-01T19:33:30;2.22;;;1.40;;
42586;SDS011;28216;53.362;-6.288;2023-08-01T19:35:55;1.85;;;1.23;;
42586;SDS011;28216;53.362;-6.288;2023-08-01T19:38:21;2.25;;;1.15;;
42586;SDS011;28216;53.362;-6.288;2023-08-01T19:40:46;2.33;;;1.30;;
42586;SDS011;28216;53.362;-6.288;2023-08-01T19:43:13;1.83;;;1.20;;
42586;SDS011;28216;53.362;-6.288;2023-08-01T19:45:41;2.22;;;1.40;;
42586;SDS011;28216;53.362;-6.288;2023-08-01T19:48:07;3.67;;;1.50;;
42586;SDS011;28216;53.362;-6.288;2023-08-01T19:50:35;3.95;;;1.50;;
42586;SDS011;28216;53.362;-6.288;2023-08-01T20:06:35;5.88;;;1.92;;
42586;SDS011;28216;53.362;-6.288;2023-08-01T20:09:01;4.97;;;2.00;;
42586;SDS011;28216;53.362;-6.288;2023-08-01T20:11:26;4.78;;;1.90;;